sensor_id;sensor_type;location;lat;lon;timestamp;temperature;humidity
43087;DHT22;28708;52.224;6.924;2023-10-08T00:01:53;17.80;99.90
43087;DHT22;28708;52.224;6.924;2023-10-08T00:04:21;17.80;99.90
43087;DHT22;28708;52.224;6.924;2023-10-08T00:06:46;17.80;99.90
43087;DHT22;28708;52.224;6.924;2023-10-08T00:09:13;17.80;99.90
43087;DHT22;28708;52.224;6.924;2023-10-08T00:11:40;17.80;99.90
43087;DHT22;28708;52.224;6.924;2023-10-08T00:14:06;17.80;99.90
43087;DHT22;28708;52.224;6.924;2023-10-08T00:16:37;17.80;99.90
43087;DHT22;28708;52.224;6.924;2023-10-08T00:19:06;17.80;99.90
43087;DHT22;28708;52.224;6.924;2023-10-08T00:21:38;17.90;99.90
43087;DHT22;28708;52.224;6.924;2023-10-08T00:24:05;17.90;99.90
43087;DHT22;28708;52.224;6.924;2023-10-08T00:26:33;17.90;99.90
43087;DHT22;28708;52.224;6.924;2023-10-08T00:29:05;17.90;99.90
43087;DHT22;28708;52.224;6.924;2023-10-08T00:31:47;17.90;99.90
43087;DHT22;28708;52.224;6.924;2023-10-08T00:34:15;17.90;99.90
43087;DHT22;28708;52.224;6.924;2023-10-08T00:36:44;17.90;99.90
43087;DHT22;28708;52.224;6.924;2023-10-08T00:39:10;18.00;99.90
43087;DHT22;28708;52.224;6.924;2023-10-08T00:41:44;18.00;99.90
43087;DHT22;28708;52.224;6.924;2023-10-08T00:44:12;17.90;99.90
43087;DHT22;28708;52.224;6.924;2023-10-08T00:46:42;17.90;99.90
43087;DHT22;28708;52.224;6.924;2023-10-08T00:49:15;18.00;99.90
43087;DHT22;28708;52.224;6.924;2023-10-08T00:51:51;18.00;99.90
43087;DHT22;28708;52.224;6.924;2023-10-08T00:54:46;17.90;99.90
43087;DHT22;28708;52.224;6.924;2023-10-08T00:57:33;17.90;99.90
43087;DHT22;28708;52.224;6.924;2023-10-08T01:00:05;17.90;99.90
43087;DHT22;28708;52.224;6.924;2023-10-08T01:02:42;17.90;99.90
43087;DHT22;28708;52.224;6.924;2023-10-08T01:05:26;17.90;99.90
43087;DHT22;28708;52.224;6.924;2023-10-08T01:08:07;17.90;99.90
43087;DHT22;28708;52.224;6.924;2023-10-08T01:10:35;17.90;99.90
43087;DHT22;28708;52.224;6.924;2023-10-08T01:13:01;17.90;99.90
43087;DHT22;28708;52.224;6.924;2023-10-08T01:15:27;17.90;99.90
43087;DHT22;28708;52.224;6.924;2023-10-08T01:17:56;17.80;99.90
43087;DHT22;28708;52.224;6.924;2023-10-08T01:20:30;17.80;99.90
43087;DHT22;28708;52.224;6.924;2023-10-08T01:23:07;17.80;99.90
43087;DHT22;28708;52.224;6.924;2023-10-08T01:25:45;17.90;99.90
43087;DHT22;28708;52.224;6.924;2023-10-08T01:28:16;17.80;99.90
43087;DHT22;28708;52.224;6.924;2023-10-08T01:30:53;17.90;99.90
43087;DHT22;28708;52.224;6.924;2023-10-08T01:33:25;17.80;99.90
43087;DHT22;28708;52.224;6.924;2023-10-08T01:35:54;17.80;99.90
43087;DHT22;28708;52.224;6.924;2023-10-08T01:38:20;17.80;99.90
43087;DHT22;28708;52.224;6.924;2023-10-08T01:40:50;17.80;99.90
43087;DHT22;28708;52.224;6.924;2023-10-08T01:43:17;17.80;99.90
43087;DHT22;28708;52.224;6.924;2023-10-08T01:45:43;17.80;99.90
43087;DHT22;28708;52.224;6.924;2023-10-08T01:48:14;17.60;99.90
43087;DHT22;28708;52.224;6.924;2023-10-08T01:50:57;17.30;99.90
43087;DHT22;28708;52.224;6.924;2023-10-08T01:53:27;17.00;99.90
43087;DHT22;28708;52.224;6.924;2023-10-08T01:55:53;16.80;99.90
43087;DHT22;28708;52.224;6.924;2023-10-08T01:58:20;16.60;99.90
43087;DHT22;28708;52.224;6.924;2023-10-08T02:00:46;16.40;99.90
43087;DHT22;28708;52.224;6.924;2023-10-08T02:03:14;16.30;99.90
43087;DHT22;28708;52.224;6.924;2023-10-08T02:05:48;16.20;99.90
43087;DHT22;28708;52.224;6.924;2023-10-08T02:08:14;16.10;99.90
43087;DHT22;28708;52.224;6.924;2023-10-08T02:10:43;16.00;99.90
43087;DHT22;28708;52.224;6.924;2023-10-08T02:13:10;15.90;99.90
43087;DHT22;28708;52.224;6.924;2023-10-08T02:15:36;15.90;99.90
43087;DHT22;28708;52.224;6.924;2023-10-08T02:18:03;15.60;99.90
43087;DHT22;28708;52.224;6.924;2023-10-08T02:20:29;15.50;99.90
43087;DHT22;28708;52.224;6.924;2023-10-08T02:22:55;15.50;99.90
43087;DHT22;28708;52.224;6.924;2023-10-08T02:25:20;15.30;99.90
43087;DHT22;28708;52.224;6.924;2023-10-08T02:27:47;15.20;99.90
43087;DHT22;28708;52.224;6.924;2023-10-08T02:30:14;15.10;99.90
43087;DHT22;28708;52.224;6.924;2023-10-08T02:32:39;15.10;99.90
43087;DHT22;28708;52.224;6.924;2023-10-08T02:35:09;15.00;99.90
43087;DHT22;28708;52.224;6.924;2023-10-08T02:37:37;14.90;99.90
43087;DHT22;28708;52.224;6.924;2023-10-08T02:40:09;14.80;99.90
43087;DHT22;28708;52.224;6.924;2023-10-08T02:42:54;14.80;99.90
43087;DHT22;28708;52.224;6.924;2023-10-08T02:45:27;14.70;99.90
43087;DHT22;28708;52.224;6.924;2023-10-08T02:47:56;14.60;99.90
43087;DHT22;28708;52.224;6.924;2023-10-08T02:50:22;14.60;99.90
43087;DHT22;28708;52.224;6.924;2023-10-08T02:52:51;14.70;99.90
43087;DHT22;28708;52.224;6.924;2023-10-08T02:55:17;14.70;99.90
43087;DHT22;28708;52.224;6.924;2023-10-08T02:58:02;14.70;99.90
43087;DHT22;28708;52.224;6.924;2023-10-08T03:00:28;14.70;99.90
43087;DHT22;28708;52.224;6.924;2023-10-08T03:03:01;14.70;99.90
43087;DHT22;28708;52.224;6.924;2023-10-08T03:05:34;14.50;99.90
43087;DHT22;28708;52.224;6.924;2023-10-08T03:08:03;14.60;99.90
43087;DHT22;28708;52.224;6.924;2023-10-08T03:10:38;14.60;99.90
43087;DHT22;28708;52.224;6.924;2023-10-08T03:13:04;14.60;99.90
43087;DHT22;28708;52.224;6.924;2023-10-08T03:15:31;14.50;99.90
43087;DHT22;28708;52.224;6.924;2023-10-08T03:18:04;14.50;99.90
43087;DHT22;28708;52.224;6.924;2023-10-08T03:20:40;14.50;99.90
43087;DHT22;28708;52.224;6.924;2023-10-08T03:23:12;14.60;99.90
43087;DHT22;28708;52.224;6.924;2023-10-08T03:25:39;14.50;99.90
43087;DHT22;28708;52.224;6.924;2023-10-08T03:28:08;14.50;99.90
43087;DHT22;28708;52.224;6.924;2023-10-08T03:30:34;14.60;99.90
43087;DHT22;28708;52.224;6.924;2023-10-08T03:33:17;14.60;99.90
43087;DHT22;28708;52.224;6.924;2023-10-08T03:35:49;14.60;99.90
43087;DHT22;28708;52.224;6.924;2023-10-08T03:38:19;14.60;99.90
43087;DHT22;28708;52.224;6.924;2023-10-08T03:40:55;14.60;99.90
43087;DHT22;28708;52.224;6.924;2023-10-08T03:43:30;14.50;99.90
43087;DHT22;28708;52.224;6.924;2023-10-08T03:46:21;14.60;99.90
43087;DHT22;28708;52.224;6.924;2023-10-08T03:48:49;14.50;99.90
43087;DHT22;28708;52.224;6.924;2023-10-08T03:51:17;14.40;99.90
43087;DHT22;28708;52.224;6.924;2023-10-08T03:53:49;14.50;99.90
43087;DHT22;28708;52.224;6.924;2023-10-08T03:56:28;14.40;99.90
43087;DHT22;28708;52.224;6.924;2023-10-08T03:58:57;14.40;99.90
43087;DHT22;28708;52.224;6.924;2023-10-08T04:01:26;14.30;99.90
43087;DHT22;28708;52.224;6.924;2023-10-08T04:03:56;14.50;99.90
43087;DHT22;28708;52.224;6.924;2023-10-08T04:06:28;14.50;99.90
43087;DHT22;28708;52.224;6.924;2023-10-08T04:08:57;14.40;99.90
43087;DHT22;28708;52.224;6.924;2023-10-08T04:11:38;14.30;99.90
43087;DHT22;28708;52.224;6.924;2023-10-08T04:14:23;14.40;99.90
43087;DHT22;28708;52.224;6.924;2023-10-08T04:16:49;14.40;99.90
43087;DHT22;28708;52.224;6.924;2023-10-08T04:19:19;14.30;99.90
43087;DHT22;28708;52.224;6.924;2023-10-08T04:21:46;14.40;99.90
43087;DHT22;28708;52.224;6.924;2023-10-08T04:24:20;14.40;99.90
43087;DHT22;28708;52.224;6.924;2023-10-08T04:26:46;14.40;99.90
43087;DHT22;28708;52.224;6.924;2023-10-08T04:29:12;14.40;99.90
43087;DHT22;28708;52.224;6.924;2023-10-08T04:31:42;14.40;99.90
43087;DHT22;28708;52.224;6.924;2023-10-08T04:34:12;14.30;99.90
43087;DHT22;28708;52.224;6.924;2023-10-08T04:36:48;14.30;99.90
43087;DHT22;28708;52.224;6.924;2023-10-08T04:39:27;14.40;99.90
43087;DHT22;28708;52.224;6.924;2023-10-08T04:41:59;14.40;99.90
43087;DHT22;28708;52.224;6.924;2023-10-08T04:44:32;14.40;99.90
43087;DHT22;28708;52.224;6.924;2023-10-08T04:46:58;14.30;99.90
43087;DHT22;28708;52.224;6.924;2023-10-08T04:49:30;14.30;99.90
43087;DHT22;28708;52.224;6.924;2023-10-08T04:52:06;14.30;99.90
43087;DHT22;28708;52.224;6.924;2023-10-08T04:54:42;14.30;99.90
43087;DHT22;28708;52.224;6.924;2023-10-08T04:57:17;14.20;99.90
43087;DHT22;28708;52.224;6.924;2023-10-08T04:59:43;14.30;99.90
43087;DHT22;28708;52.224;6.924;2023-10-08T05:02:09;14.30;99.90
43087;DHT22;28708;52.224;6.924;2023-10-08T05:04:43;14.20;99.90
43087;DHT22;28708;52.224;6.924;2023-10-08T05:07:12;14.20;99.90
43087;DHT22;28708;52.224;6.924;2023-10-08T05:09:44;14.20;99.90
43087;DHT22;28708;52.224;6.924;2023-10-08T05:12:12;14.20;99.90
43087;DHT22;28708;52.224;6.924;2023-10-08T05:14:56;14.20;99.90
43087;DHT22;28708;52.224;6.924;2023-10-08T05:17:44;14.10;99.90
43087;DHT22;28708;52.224;6.924;2023-10-08T05:20:20;14.20;99.90
43087;DHT22;28708;52.224;6.924;2023-10-08T05:23:12;14.20;99.90
43087;DHT22;28708;52.224;6.924;2023-10-08T05:25:51;14.10;99.90
43087;DHT22;28708;52.224;6.924;2023-10-08T05:28:29;14.10;99.90
43087;DHT22;28708;52.224;6.924;2023-10-08T05:30:56;14.20;99.90
43087;DHT22;28708;52.224;6.924;2023-10-08T05:33:57;14.00;99.90
43087;DHT22;28708;52.224;6.924;2023-10-08T05:36:29;14.10;99.90
43087;DHT22;28708;52.224;6.924;2023-10-08T05:39:13;14.10;99.90
43087;DHT22;28708;52.224;6.924;2023-10-08T05:41:58;14.20;99.90
43087;DHT22;28708;52.224;6.924;2023-10-08T05:44:43;14.10;99.90
43087;DHT22;28708;52.224;6.924;2023-10-08T05:47:32;14.10;99.90
43087;DHT22;28708;52.224;6.924;2023-10-08T05:49:58;14.10;99.90
43087;DHT22;28708;52.224;6.924;2023-10-08T05:52:43;14.00;99.90
43087;DHT22;28708;52.224;6.924;2023-10-08T05:55:31;14.00;99.90
43087;DHT22;28708;52.224;6.924;2023-10-08T05:58:04;14.00;99.90
43087;DHT22;28708;52.224;6.924;2023-10-08T06:00:43;13.90;99.90
43087;DHT22;28708;52.224;6.924;2023-10-08T06:03:32;14.00;99.90
43087;DHT22;28708;52.224;6.924;2023-10-08T06:06:08;14.00;99.90
43087;DHT22;28708;52.224;6.924;2023-10-08T06:09:10;14.00;99.90
43087;DHT22;28708;52.224;6.924;2023-10-08T06:11:55;14.00;99.90
43087;DHT22;28708;52.224;6.924;2023-10-08T06:14:38;14.20;99.90
43087;DHT22;28708;52.224;6.924;2023-10-08T06:17:33;14.10;99.90
43087;DHT22;28708;52.224;6.924;2023-10-08T06:20:17;14.10;99.90
43087;DHT22;28708;52.224;6.924;2023-10-08T06:22:43;14.20;99.90
43087;DHT22;28708;52.224;6.924;2023-10-08T06:25:09;14.20;99.90
43087;DHT22;28708;52.224;6.924;2023-10-08T06:27:50;14.10;99.90
43087;DHT22;28708;52.224;6.924;2023-10-08T06:30:21;14.10;99.90
43087;DHT22;28708;52.224;6.924;2023-10-08T06:32:47;14.10;99.90
43087;DHT22;28708;52.224;6.924;2023-10-08T06:35:13;14.10;99.90
43087;DHT22;28708;52.224;6.924;2023-10-08T06:37:44;14.00;99.90
43087;DHT22;28708;52.224;6.924;2023-10-08T06:40:11;14.00;99.90
43087;DHT22;28708;52.224;6.924;2023-10-08T06:42:57;14.10;99.90
43087;DHT22;28708;52.224;6.924;2023-10-08T06:45:26;14.00;99.90
43087;DHT22;28708;52.224;6.924;2023-10-08T06:47:53;14.00;99.90
43087;DHT22;28708;52.224;6.924;2023-10-08T06:50:19;14.00;99.90
43087;DHT22;28708;52.224;6.924;2023-10-08T06:52:47;14.00;99.90
43087;DHT22;28708;52.224;6.924;2023-10-08T06:55:14;13.90;99.90
43087;DHT22;28708;52.224;6.924;2023-10-08T06:57:43;14.00;99.90
43087;DHT22;28708;52.224;6.924;2023-10-08T07:00:12;14.10;99.90
43087;DHT22;28708;52.224;6.924;2023-10-08T07:02:57;14.00;99.90
43087;DHT22;28708;52.224;6.924;2023-10-08T07:05:23;14.00;99.90
43087;DHT22;28708;52.224;6.924;2023-10-08T07:07:49;14.00;99.90
43087;DHT22;28708;52.224;6.924;2023-10-08T07:10:18;14.00;99.90
43087;DHT22;28708;52.224;6.924;2023-10-08T07:12:45;14.00;99.90
43087;DHT22;28708;52.224;6.924;2023-10-08T07:15:12;14.00;99.90
43087;DHT22;28708;52.224;6.924;2023-10-08T07:17:39;13.80;99.90
43087;DHT22;28708;52.224;6.924;2023-10-08T07:20:09;13.80;99.90
43087;DHT22;28708;52.224;6.924;2023-10-08T07:22:40;13.80;99.90
43087;DHT22;28708;52.224;6.924;2023-10-08T07:25:09;13.90;99.90
43087;DHT22;28708;52.224;6.924;2023-10-08T07:27:36;13.90;99.90
43087;DHT22;28708;52.224;6.924;2023-10-08T07:30:22;14.00;99.90
43087;DHT22;28708;52.224;6.924;2023-10-08T07:32:57;14.00;99.90
43087;DHT22;28708;52.224;6.924;2023-10-08T07:35:24;14.00;99.90
43087;DHT22;28708;52.224;6.924;2023-10-08T07:37:54;13.90;99.90
43087;DHT22;28708;52.224;6.924;2023-10-08T07:40:20;14.00;99.90
43087;DHT22;28708;52.224;6.924;2023-10-08T07:42:46;13.90;99.90
43087;DHT22;28708;52.224;6.924;2023-10-08T07:45:17;14.00;99.90
43087;DHT22;28708;52.224;6.924;2023-10-08T07:47:47;14.10;99.90
43087;DHT22;28708;52.224;6.924;2023-10-08T07:50:14;14.10;99.90
43087;DHT22;28708;52.224;6.924;2023-10-08T07:52:41;14.10;99.90
43087;DHT22;28708;52.224;6.924;2023-10-08T07:55:10;14.10;99.90
43087;DHT22;28708;52.224;6.924;2023-10-08T07:57:36;14.20;99.90
43087;DHT22;28708;52.224;6.924;2023-10-08T08:00:01;14.10;99.90
43087;DHT22;28708;52.224;6.924;2023-10-08T08:02:43;14.20;99.90
43087;DHT22;28708;52.224;6.924;2023-10-08T08:05:11;14.20;99.90
43087;DHT22;28708;52.224;6.924;2023-10-08T08:07:43;14.30;99.90
43087;DHT22;28708;52.224;6.924;2023-10-08T08:10:11;14.20;99.90
43087;DHT22;28708;52.224;6.924;2023-10-08T08:12:37;14.40;99.90
43087;DHT22;28708;52.224;6.924;2023-10-08T08:15:03;14.30;99.90
43087;DHT22;28708;52.224;6.924;2023-10-08T08:17:44;14.40;99.90
43087;DHT22;28708;52.224;6.924;2023-10-08T08:20:13;14.50;99.90
43087;DHT22;28708;52.224;6.924;2023-10-08T08:22:47;14.60;99.90
43087;DHT22;28708;52.224;6.924;2023-10-08T08:25:19;14.60;99.90
43087;DHT22;28708;52.224;6.924;2023-10-08T08:28:08;14.60;99.90
43087;DHT22;28708;52.224;6.924;2023-10-08T08:30:45;14.60;99.90
43087;DHT22;28708;52.224;6.924;2023-10-08T08:33:13;14.70;99.90
43087;DHT22;28708;52.224;6.924;2023-10-08T08:35:39;14.90;99.90
43087;DHT22;28708;52.224;6.924;2023-10-08T08:38:05;15.00;99.90
43087;DHT22;28708;52.224;6.924;2023-10-08T08:40:34;15.00;99.90
43087;DHT22;28708;52.224;6.924;2023-10-08T08:42:59;15.00;99.90
43087;DHT22;28708;52.224;6.924;2023-10-08T08:45:30;15.20;99.90
43087;DHT22;28708;52.224;6.924;2023-10-08T08:47:59;15.40;99.90
43087;DHT22;28708;52.224;6.924;2023-10-08T08:50:26;15.40;99.90
43087;DHT22;28708;52.224;6.924;2023-10-08T08:52:53;15.60;99.90
43087;DHT22;28708;52.224;6.924;2023-10-08T08:55:25;15.60;99.90
43087;DHT22;28708;52.224;6.924;2023-10-08T08:57:54;15.60;99.90
43087;DHT22;28708;52.224;6.924;2023-10-08T09:00:21;15.60;99.90
43087;DHT22;28708;52.224;6.924;2023-10-08T09:02:53;15.40;99.90
43087;DHT22;28708;52.224;6.924;2023-10-08T09:05:19;15.70;99.90
43087;DHT22;28708;52.224;6.924;2023-10-08T09:07:59;15.90;99.90
43087;DHT22;28708;52.224;6.924;2023-10-08T09:10:28;16.00;99.90
43087;DHT22;28708;52.224;6.924;2023-10-08T09:12:56;16.00;99.90
43087;DHT22;28708;52.224;6.924;2023-10-08T09:15:27;16.10;99.90
43087;DHT22;28708;52.224;6.924;2023-10-08T09:17:56;16.10;99.90
43087;DHT22;28708;52.224;6.924;2023-10-08T09:20:26;16.00;99.90
43087;DHT22;28708;52.224;6.924;2023-10-08T09:25:38;15.80;99.90
43087;DHT22;28708;52.224;6.924;2023-10-08T09:28:05;15.90;99.90
43087;DHT22;28708;52.224;6.924;2023-10-08T09:30:37;15.70;99.90
43087;DHT22;28708;52.224;6.924;2023-10-08T09:33:07;15.60;99.90
43087;DHT22;28708;52.224;6.924;2023-10-08T09:35:33;15.50;99.90
43087;DHT22;28708;52.224;6.924;2023-10-08T09:38:03;15.60;99.90
43087;DHT22;28708;52.224;6.924;2023-10-08T09:40:28;15.70;99.90
43087;DHT22;28708;52.224;6.924;2023-10-08T09:42:55;15.80;99.90
43087;DHT22;28708;52.224;6.924;2023-10-08T09:45:21;15.90;99.90
43087;DHT22;28708;52.224;6.924;2023-10-08T09:47:53;15.80;99.90
43087;DHT22;28708;52.224;6.924;2023-10-08T09:50:27;15.90;99.90
43087;DHT22;28708;52.224;6.924;2023-10-08T09:53:09;15.80;99.90
43087;DHT22;28708;52.224;6.924;2023-10-08T09:55:53;15.80;99.90
43087;DHT22;28708;52.224;6.924;2023-10-08T09:58:21;16.00;99.90
43087;DHT22;28708;52.224;6.924;2023-10-08T10:00:49;15.90;99.90
43087;DHT22;28708;52.224;6.924;2023-10-08T10:03:16;16.20;99.90
43087;DHT22;28708;52.224;6.924;2023-10-08T10:05:44;16.30;99.90
43087;DHT22;28708;52.224;6.924;2023-10-08T10:08:10;16.50;99.90
43087;DHT22;28708;52.224;6.924;2023-10-08T10:10:37;16.60;99.90
43087;DHT22;28708;52.224;6.924;2023-10-08T10:13:05;16.40;99.90
43087;DHT22;28708;52.224;6.924;2023-10-08T10:15:34;16.20;99.90
43087;DHT22;28708;52.224;6.924;2023-10-08T10:18:32;16.10;99.90
43087;DHT22;28708;52.224;6.924;2023-10-08T10:23:47;16.10;99.90
43087;DHT22;28708;52.224;6.924;2023-10-08T10:26:31;16.10;99.90
43087;DHT22;28708;52.224;6.924;2023-10-08T10:29:25;15.90;99.90
43087;DHT22;28708;52.224;6.924;2023-10-08T10:31:53;15.90;99.90
43087;DHT22;28708;52.224;6.924;2023-10-08T10:34:24;15.90;99.90
43087;DHT22;28708;52.224;6.924;2023-10-08T10:36:54;16.10;99.90
43087;DHT22;28708;52.224;6.924;2023-10-08T10:39:42;16.40;99.90
43087;DHT22;28708;52.224;6.924;2023-10-08T10:42:10;16.90;99.90
43087;DHT22;28708;52.224;6.924;2023-10-08T10:44:49;16.60;99.90
43087;DHT22;28708;52.224;6.924;2023-10-08T10:47:19;16.40;99.90
43087;DHT22;28708;52.224;6.924;2023-10-08T10:49:49;16.60;99.90
43087;DHT22;28708;52.224;6.924;2023-10-08T10:52:33;16.90;99.90
43087;DHT22;28708;52.224;6.924;2023-10-08T10:55:18;17.10;99.90
43087;DHT22;28708;52.224;6.924;2023-10-08T10:57:51;17.20;99.90
43087;DHT22;28708;52.224;6.924;2023-10-08T11:00:43;17.00;99.90
43087;DHT22;28708;52.224;6.924;2023-10-08T11:03:09;17.30;99.90
43087;DHT22;28708;52.224;6.924;2023-10-08T11:05:42;17.10;99.90
43087;DHT22;28708;52.224;6.924;2023-10-08T11:08:14;16.90;99.90
43087;DHT22;28708;52.224;6.924;2023-10-08T11:10:42;16.60;99.90
43087;DHT22;28708;52.224;6.924;2023-10-08T11:13:20;16.40;99.90
43087;DHT22;28708;52.224;6.924;2023-10-08T11:15:49;16.50;99.90
43087;DHT22;28708;52.224;6.924;2023-10-08T11:18:20;16.40;99.90
43087;DHT22;28708;52.224;6.924;2023-10-08T11:20:46;16.80;99.90
43087;DHT22;28708;52.224;6.924;2023-10-08T11:23:36;17.60;99.90
43087;DHT22;28708;52.224;6.924;2023-10-08T11:26:06;18.70;99.90
43087;DHT22;28708;52.224;6.924;2023-10-08T11:28:33;17.80;99.90
43087;DHT22;28708;52.224;6.924;2023-10-08T11:31:04;17.60;99.90
43087;DHT22;28708;52.224;6.924;2023-10-08T11:36:06;17.70;99.90
43087;DHT22;28708;52.224;6.924;2023-10-08T11:38:39;17.60;99.90
43087;DHT22;28708;52.224;6.924;2023-10-08T11:41:12;17.40;99.90
43087;DHT22;28708;52.224;6.924;2023-10-08T11:43:57;17.40;99.90
43087;DHT22;28708;52.224;6.924;2023-10-08T11:46:28;17.30;99.90
43087;DHT22;28708;52.224;6.924;2023-10-08T11:49:10;17.20;99.90
43087;DHT22;28708;52.224;6.924;2023-10-08T11:51:46;17.00;99.90
43087;DHT22;28708;52.224;6.924;2023-10-08T11:54:12;16.90;99.90
43087;DHT22;28708;52.224;6.924;2023-10-08T11:56:38;17.00;99.90
43087;DHT22;28708;52.224;6.924;2023-10-08T11:59:05;16.80;99.90
43087;DHT22;28708;52.224;6.924;2023-10-08T12:01:38;16.90;99.90
43087;DHT22;28708;52.224;6.924;2023-10-08T12:04:08;17.10;99.90
43087;DHT22;28708;52.224;6.924;2023-10-08T12:06:41;17.30;99.90
43087;DHT22;28708;52.224;6.924;2023-10-08T12:09:18;17.10;99.90
43087;DHT22;28708;52.224;6.924;2023-10-08T12:11:49;17.30;99.90
43087;DHT22;28708;52.224;6.924;2023-10-08T12:14:16;17.50;99.90
43087;DHT22;28708;52.224;6.924;2023-10-08T12:16:42;17.80;99.90
43087;DHT22;28708;52.224;6.924;2023-10-08T12:19:11;17.70;99.90
43087;DHT22;28708;52.224;6.924;2023-10-08T12:21:45;17.60;99.90
43087;DHT22;28708;52.224;6.924;2023-10-08T12:24:14;17.50;99.90
43087;DHT22;28708;52.224;6.924;2023-10-08T12:26:40;17.20;99.90
43087;DHT22;28708;52.224;6.924;2023-10-08T12:29:15;17.10;99.90
43087;DHT22;28708;52.224;6.924;2023-10-08T12:31:42;17.10;99.90
43087;DHT22;28708;52.224;6.924;2023-10-08T12:34:15;17.20;99.90
43087;DHT22;28708;52.224;6.924;2023-10-08T12:36:42;17.00;99.90
43087;DHT22;28708;52.224;6.924;2023-10-08T12:39:08;16.90;99.90
43087;DHT22;28708;52.224;6.924;2023-10-08T12:41:43;16.90;99.90
43087;DHT22;28708;52.224;6.924;2023-10-08T12:44:10;16.90;99.90
43087;DHT22;28708;52.224;6.924;2023-10-08T12:46:36;17.00;99.90
43087;DHT22;28708;52.224;6.924;2023-10-08T12:49:02;16.90;99.90
